sensor_id;sensor_type;location;lat;lon;timestamp;P1;P2;P0
44933;PMS3003;30667;43.614;1.442;2023-06-26T00:01:40;20.75;16.75;10.00
44933;PMS3003;30667;43.614;1.442;2023-06-26T00:04:07;20.25;19.25;11.00
44933;PMS3003;30667;43.614;1.442;2023-06-26T00:06:33;18.50;17.00;11.25
44933;PMS3003;30667;43.614;1.442;2023-06-26T00:08:58;20.25;18.00;10.00
44933;PMS3003;30667;43.614;1.442;2023-06-26T00:11:25;19.00;19.00;11.00
44933;PMS3003;30667;43.614;1.442;2023-06-26T00:13:52;19.60;18.40;10.80
44933;PMS3003;30667;43.614;1.442;2023-06-26T00:16:17;15.00;15.00;9.75
44933;PMS3003;30667;43.614;1.442;2023-06-26T00:18:43;19.00;17.00;11.00
44933;PMS3003;30667;43.614;1.442;2023-06-26T00:21:08;18.00;17.00;10.50
44933;PMS3003;30667;43.614;1.442;2023-06-26T00:23:34;20.75;17.75;11.00
44933;PMS3003;30667;43.614;1.442;2023-06-26T00:26:01;20.80;18.60;10.00
44933;PMS3003;30667;43.614;1.442;2023-06-26T00:28:28;18.00;16.40;10.60
44933;PMS3003;30667;43.614;1.442;2023-06-26T00:30:53;17.00;15.50;9.25
44933;PMS3003;30667;43.614;1.442;2023-06-26T00:33:19;17.50;16.75;11.50
44933;PMS3003;30667;43.614;1.442;2023-06-26T00:35:44;16.25;16.00;9.00
44933;PMS3003;30667;43.614;1.442;2023-06-26T00:38:09;16.50;15.00;9.75
44933;PMS3003;30667;43.614;1.442;2023-06-26T00:40:35;23.00;20.50;11.25
44933;PMS3003;30667;43.614;1.442;2023-06-26T00:43:01;18.75;16.00;10.00
44933;PMS3003;30667;43.614;1.442;2023-06-26T00:45:26;15.80;15.40;9.00
44933;PMS3003;30667;43.614;1.442;2023-06-26T00:47:52;19.50;16.00;11.00
44933;PMS3003;30667;43.614;1.442;2023-06-26T00:50:18;19.20;15.40;9.80
44933;PMS3003;30667;43.614;1.442;2023-06-26T00:52:44;21.00;18.50;11.00
44933;PMS3003;30667;43.614;1.442;2023-06-26T00:55:10;15.75;15.00;10.00
44933;PMS3003;30667;43.614;1.442;2023-06-26T00:57:35;18.00;16.50;11.00
44933;PMS3003;30667;43.614;1.442;2023-06-26T01:00:01;16.00;15.50;9.00
44933;PMS3003;30667;43.614;1.442;2023-06-26T01:02:28;17.40;15.60;10.00
44933;PMS3003;30667;43.614;1.442;2023-06-26T01:04:59;18.80;17.40;10.60
44933;PMS3003;30667;43.614;1.442;2023-06-26T01:07:28;19.00;18.40;11.40
44933;PMS3003;30667;43.614;1.442;2023-06-26T01:09:54;19.00;16.75;10.00
44933;PMS3003;30667;43.614;1.442;2023-06-26T01:12:19;18.00;15.50;10.50
44933;PMS3003;30667;43.614;1.442;2023-06-26T01:14:45;18.00;17.75;9.25
44933;PMS3003;30667;43.614;1.442;2023-06-26T01:17:10;18.25;16.25;10.75
44933;PMS3003;30667;43.614;1.442;2023-06-26T01:19:40;18.40;16.40;10.80
44933;PMS3003;30667;43.614;1.442;2023-06-26T01:27:50;16.20;15.40;10.00
44933;PMS3003;30667;43.614;1.442;2023-06-26T01:30:18;18.20;16.20;10.80
44933;PMS3003;30667;43.614;1.442;2023-06-26T01:32:46;17.40;16.20;10.80
44933;PMS3003;30667;43.614;1.442;2023-06-26T01:35:12;16.40;15.60;10.60
44933;PMS3003;30667;43.614;1.442;2023-06-26T01:37:39;18.60;17.00;10.60
44933;PMS3003;30667;43.614;1.442;2023-06-26T01:40:05;19.50;15.75;10.00
44933;PMS3003;30667;43.614;1.442;2023-06-26T01:42:31;18.40;16.60;11.40
44933;PMS3003;30667;43.614;1.442;2023-06-26T01:44:57;17.80;17.20;10.00
44933;PMS3003;30667;43.614;1.442;2023-06-26T01:47:36;18.80;17.40;10.80
44933;PMS3003;30667;43.614;1.442;2023-06-26T01:50:06;18.80;16.80;10.60
44933;PMS3003;30667;43.614;1.442;2023-06-26T01:52:38;19.00;15.20;9.80
44933;PMS3003;30667;43.614;1.442;2023-06-26T01:57:58;17.60;16.80;11.00
44933;PMS3003;30667;43.614;1.442;2023-06-26T02:00:24;18.20;16.20;9.40
44933;PMS3003;30667;43.614;1.442;2023-06-26T02:02:51;17.60;15.80;9.00
44933;PMS3003;30667;43.614;1.442;2023-06-26T02:05:17;19.20;16.80;9.20
44933;PMS3003;30667;43.614;1.442;2023-06-26T02:07:43;16.75;16.00;10.75
44933;PMS3003;30667;43.614;1.442;2023-06-26T02:10:09;16.50;15.75;9.00
44933;PMS3003;30667;43.614;1.442;2023-06-26T02:12:35;18.25;15.75;10.50
44933;PMS3003;30667;43.614;1.442;2023-06-26T02:15:01;18.80;17.40;10.60
44933;PMS3003;30667;43.614;1.442;2023-06-26T02:17:27;17.40;16.20;10.60
44933;PMS3003;30667;43.614;1.442;2023-06-26T02:19:53;17.00;16.00;10.00
44933;PMS3003;30667;43.614;1.442;2023-06-26T02:22:18;19.75;18.00;11.00
44933;PMS3003;30667;43.614;1.442;2023-06-26T02:24:43;18.00;16.75;10.00
44933;PMS3003;30667;43.614;1.442;2023-06-26T02:27:09;17.00;16.00;10.00
44933;PMS3003;30667;43.614;1.442;2023-06-26T02:29:35;17.75;17.50;11.00
44933;PMS3003;30667;43.614;1.442;2023-06-26T02:32:01;21.80;18.00;11.40
44933;PMS3003;30667;43.614;1.442;2023-06-26T02:34:26;19.25;17.25;10.50
44933;PMS3003;30667;43.614;1.442;2023-06-26T02:36:52;16.50;15.50;10.00
44933;PMS3003;30667;43.614;1.442;2023-06-26T02:39:21;18.80;18.20;11.40
44933;PMS3003;30667;43.614;1.442;2023-06-26T02:41:46;16.75;16.50;11.00
44933;PMS3003;30667;43.614;1.442;2023-06-26T02:44:12;17.50;16.75;11.25
44933;PMS3003;30667;43.614;1.442;2023-06-26T02:46:39;20.60;19.00;12.40
44933;PMS3003;30667;43.614;1.442;2023-06-26T02:49:05;18.00;16.40;10.80
44933;PMS3003;30667;43.614;1.442;2023-06-26T02:51:34;17.00;16.00;10.75
44933;PMS3003;30667;43.614;1.442;2023-06-26T02:53:59;17.60;16.60;10.40
44933;PMS3003;30667;43.614;1.442;2023-06-26T02:56:25;18.80;18.40;11.20
44933;PMS3003;30667;43.614;1.442;2023-06-26T02:58:53;16.80;16.80;11.40
44933;PMS3003;30667;43.614;1.442;2023-06-26T03:01:19;17.60;16.80;10.00
44933;PMS3003;30667;43.614;1.442;2023-06-26T03:03:45;17.60;16.20;11.00
44933;PMS3003;30667;43.614;1.442;2023-06-26T03:06:12;19.20;17.80;10.40
44933;PMS3003;30667;43.614;1.442;2023-06-26T03:08:38;17.40;16.80;10.40
44933;PMS3003;30667;43.614;1.442;2023-06-26T03:11:04;19.00;17.80;10.60
44933;PMS3003;30667;43.614;1.442;2023-06-26T03:13:30;19.60;18.60;11.80
44933;PMS3003;30667;43.614;1.442;2023-06-26T03:15:56;20.00;17.40;9.80
44933;PMS3003;30667;43.614;1.442;2023-06-26T03:18:22;19.25;19.25;11.75
44933;PMS3003;30667;43.614;1.442;2023-06-26T03:20:47;19.75;16.25;9.75
44933;PMS3003;30667;43.614;1.442;2023-06-26T03:23:13;17.75;17.75;12.25
44933;PMS3003;30667;43.614;1.442;2023-06-26T03:25:38;18.25;17.00;12.00
44933;PMS3003;30667;43.614;1.442;2023-06-26T03:28:04;22.75;17.00;10.00
44933;PMS3003;30667;43.614;1.442;2023-06-26T03:30:29;19.75;17.75;10.25
44933;PMS3003;30667;43.614;1.442;2023-06-26T03:32:54;19.50;18.00;13.00
44933;PMS3003;30667;43.614;1.442;2023-06-26T03:35:21;18.60;17.00;11.20
44933;PMS3003;30667;43.614;1.442;2023-06-26T03:37:48;20.60;17.00;11.00
44933;PMS3003;30667;43.614;1.442;2023-06-26T03:40:14;19.20;16.80;11.00
44933;PMS3003;30667;43.614;1.442;2023-06-26T03:42:39;17.00;16.25;10.75
44933;PMS3003;30667;43.614;1.442;2023-06-26T03:45:05;20.00;18.00;12.00
44933;PMS3003;30667;43.614;1.442;2023-06-26T03:47:31;17.50;16.75;11.50
44933;PMS3003;30667;43.614;1.442;2023-06-26T03:49:56;18.50;17.50;11.00
44933;PMS3003;30667;43.614;1.442;2023-06-26T03:52:21;18.50;17.00;11.00
44933;PMS3003;30667;43.614;1.442;2023-06-26T03:54:47;16.50;16.50;11.25
44933;PMS3003;30667;43.614;1.442;2023-06-26T03:57:13;19.20;19.00;12.20
44933;PMS3003;30667;43.614;1.442;2023-06-26T03:59:39;19.25;18.00;12.00
44933;PMS3003;30667;43.614;1.442;2023-06-26T04:02:04;18.75;16.50;11.75
44933;PMS3003;30667;43.614;1.442;2023-06-26T04:04:30;20.00;17.25;12.00
44933;PMS3003;30667;43.614;1.442;2023-06-26T04:06:55;18.25;16.50;11.00
44933;PMS3003;30667;43.614;1.442;2023-06-26T04:09:21;20.75;18.25;11.00
44933;PMS3003;30667;43.614;1.442;2023-06-26T04:11:46;20.00;17.25;10.50
44933;PMS3003;30667;43.614;1.442;2023-06-26T04:14:11;16.50;15.75;10.50
44933;PMS3003;30667;43.614;1.442;2023-06-26T04:16:37;17.40;16.40;10.40
44933;PMS3003;30667;43.614;1.442;2023-06-26T04:19:03;17.50;17.00;10.00
44933;PMS3003;30667;43.614;1.442;2023-06-26T04:21:29;19.00;17.80;11.80
44933;PMS3003;30667;43.614;1.442;2023-06-26T04:23:55;16.00;16.00;10.00
44933;PMS3003;30667;43.614;1.442;2023-06-26T04:26:21;17.75;15.75;10.00
44933;PMS3003;30667;43.614;1.442;2023-06-26T04:28:46;20.00;18.75;11.00
44933;PMS3003;30667;43.614;1.442;2023-06-26T04:31:12;16.50;16.50;10.25
44933;PMS3003;30667;43.614;1.442;2023-06-26T04:33:37;22.75;21.00;13.00
44933;PMS3003;30667;43.614;1.442;2023-06-26T04:36:03;18.75;16.75;12.00
44933;PMS3003;30667;43.614;1.442;2023-06-26T04:38:30;17.20;17.00;11.40
44933;PMS3003;30667;43.614;1.442;2023-06-26T04:40:56;18.40;17.20;10.00
44933;PMS3003;30667;43.614;1.442;2023-06-26T04:43:21;17.50;16.50;10.75
44933;PMS3003;30667;43.614;1.442;2023-06-26T04:45:46;17.75;15.75;10.00
44933;PMS3003;30667;43.614;1.442;2023-06-26T04:48:12;19.20;18.80;11.60
44933;PMS3003;30667;43.614;1.442;2023-06-26T04:50:38;18.00;17.00;11.00
44933;PMS3003;30667;43.614;1.442;2023-06-26T04:53:03;16.00;15.75;10.00
44933;PMS3003;30667;43.614;1.442;2023-06-26T04:55:28;18.50;17.00;11.00
44933;PMS3003;30667;43.614;1.442;2023-06-26T04:57:55;19.40;17.80;12.00
44933;PMS3003;30667;43.614;1.442;2023-06-26T05:00:20;19.75;18.00;11.00
44933;PMS3003;30667;43.614;1.442;2023-06-26T05:02:46;17.25;16.00;10.00
44933;PMS3003;30667;43.614;1.442;2023-06-26T05:05:11;17.00;14.50;8.50
44933;PMS3003;30667;43.614;1.442;2023-06-26T05:07:37;15.75;14.00;8.75
44933;PMS3003;30667;43.614;1.442;2023-06-26T05:10:03;16.60;15.60;9.20
44933;PMS3003;30667;43.614;1.442;2023-06-26T05:12:29;16.80;15.20;8.60
44933;PMS3003;30667;43.614;1.442;2023-06-26T05:14:54;16.50;15.50;10.00
44933;PMS3003;30667;43.614;1.442;2023-06-26T05:17:20;16.25;13.75;10.00
44933;PMS3003;30667;43.614;1.442;2023-06-26T05:19:45;14.50;14.25;8.00
44933;PMS3003;30667;43.614;1.442;2023-06-26T05:22:12;15.00;14.00;8.60
44933;PMS3003;30667;43.614;1.442;2023-06-26T05:24:38;16.00;13.40;8.00
44933;PMS3003;30667;43.614;1.442;2023-06-26T05:27:05;14.60;14.60;9.00
44933;PMS3003;30667;43.614;1.442;2023-06-26T05:29:31;16.00;14.20;9.00
44933;PMS3003;30667;43.614;1.442;2023-06-26T05:31:57;15.00;14.60;9.00
44933;PMS3003;30667;43.614;1.442;2023-06-26T05:34:23;17.20;15.80;9.00
44933;PMS3003;30667;43.614;1.442;2023-06-26T05:36:52;13.50;12.00;7.00
44933;PMS3003;30667;43.614;1.442;2023-06-26T05:39:23;14.80;14.20;8.60
44933;PMS3003;30667;43.614;1.442;2023-06-26T05:41:49;16.60;14.60;8.60
44933;PMS3003;30667;43.614;1.442;2023-06-26T05:44:15;13.40;11.40;7.00
44933;PMS3003;30667;43.614;1.442;2023-06-26T05:46:41;14.75;14.00;8.50
44933;PMS3003;30667;43.614;1.442;2023-06-26T05:49:07;14.00;13.75;8.00
44933;PMS3003;30667;43.614;1.442;2023-06-26T05:51:32;15.75;14.25;8.75
44933;PMS3003;30667;43.614;1.442;2023-06-26T05:54:00;15.75;13.75;8.50
44933;PMS3003;30667;43.614;1.442;2023-06-26T05:56:25;15.20;15.00;8.80
44933;PMS3003;30667;43.614;1.442;2023-06-26T05:58:51;15.20;14.80;9.80
44933;PMS3003;30667;43.614;1.442;2023-06-26T06:01:18;15.40;15.00;10.00
44933;PMS3003;30667;43.614;1.442;2023-06-26T06:03:44;16.40;14.40;9.40
44933;PMS3003;30667;43.614;1.442;2023-06-26T06:06:10;17.00;14.50;8.50
44933;PMS3003;30667;43.614;1.442;2023-06-26T06:08:36;17.00;16.00;9.60
44933;PMS3003;30667;43.614;1.442;2023-06-26T06:11:01;18.50;16.00;8.75
44933;PMS3003;30667;43.614;1.442;2023-06-26T06:13:27;15.50;14.00;9.00
44933;PMS3003;30667;43.614;1.442;2023-06-26T06:15:53;15.80;14.20;9.00
44933;PMS3003;30667;43.614;1.442;2023-06-26T06:18:18;14.75;14.75;9.25
44933;PMS3003;30667;43.614;1.442;2023-06-26T06:20:43;18.75;15.25;8.50
44933;PMS3003;30667;43.614;1.442;2023-06-26T06:23:09;16.25;14.00;8.00
44933;PMS3003;30667;43.614;1.442;2023-06-26T06:25:34;16.50;14.50;9.75
44933;PMS3003;30667;43.614;1.442;2023-06-26T06:28:00;15.00;14.75;8.75
44933;PMS3003;30667;43.614;1.442;2023-06-26T06:30:25;16.50;15.50;9.00
44933;PMS3003;30667;43.614;1.442;2023-06-26T06:32:50;14.50;13.50;8.75
44933;PMS3003;30667;43.614;1.442;2023-06-26T06:35:18;13.80;13.20;7.80
44933;PMS3003;30667;43.614;1.442;2023-06-26T06:37:44;14.60;14.40;9.00
44933;PMS3003;30667;43.614;1.442;2023-06-26T06:40:09;16.00;13.75;9.00
44933;PMS3003;30667;43.614;1.442;2023-06-26T06:42:35;16.40;14.20;8.00
44933;PMS3003;30667;43.614;1.442;2023-06-26T06:45:04;13.25;12.50;7.00
44933;PMS3003;30667;43.614;1.442;2023-06-26T06:47:31;13.60;12.00;7.00
44933;PMS3003;30667;43.614;1.442;2023-06-26T06:49:57;14.00;12.40;7.20
44933;PMS3003;30667;43.614;1.442;2023-06-26T06:52:22;15.75;14.00;7.00
44933;PMS3003;30667;43.614;1.442;2023-06-26T06:54:52;11.50;10.50;6.50
44933;PMS3003;30667;43.614;1.442;2023-06-26T06:57:18;12.20;11.60;7.00
44933;PMS3003;30667;43.614;1.442;2023-06-26T06:59:44;13.60;13.00;7.40
44933;PMS3003;30667;43.614;1.442;2023-06-26T07:02:10;13.75;13.00;6.25
44933;PMS3003;30667;43.614;1.442;2023-06-26T07:04:35;12.00;12.00;8.00
44933;PMS3003;30667;43.614;1.442;2023-06-26T07:07:00;13.00;12.25;7.00
44933;PMS3003;30667;43.614;1.442;2023-06-26T07:09:26;11.50;10.25;6.75
44933;PMS3003;30667;43.614;1.442;2023-06-26T07:11:51;13.00;13.00;7.00
44933;PMS3003;30667;43.614;1.442;2023-06-26T07:14:16;10.50;10.50;6.00
44933;PMS3003;30667;43.614;1.442;2023-06-26T07:16:42;12.25;10.75;5.75
44933;PMS3003;30667;43.614;1.442;2023-06-26T07:19:07;12.25;10.75;6.50
44933;PMS3003;30667;43.614;1.442;2023-06-26T07:21:32;12.00;11.00;6.00
44933;PMS3003;30667;43.614;1.442;2023-06-26T07:23:58;10.25;10.00;6.00
44933;PMS3003;30667;43.614;1.442;2023-06-26T07:26:23;10.75;9.50;5.00
44933;PMS3003;30667;43.614;1.442;2023-06-26T07:28:48;10.00;10.00;6.00
44933;PMS3003;30667;43.614;1.442;2023-06-26T07:31:14;12.75;11.75;6.00
44933;PMS3003;30667;43.614;1.442;2023-06-26T07:33:41;12.60;11.20;6.60
44933;PMS3003;30667;43.614;1.442;2023-06-26T07:36:07;12.75;12.00;6.25
44933;PMS3003;30667;43.614;1.442;2023-06-26T07:38:32;12.25;11.25;7.00
44933;PMS3003;30667;43.614;1.442;2023-06-26T07:40:58;13.50;10.75;6.00
44933;PMS3003;30667;43.614;1.442;2023-06-26T07:43:23;9.75;9.75;6.50
44933;PMS3003;30667;43.614;1.442;2023-06-26T07:45:49;10.25;10.00;5.00
44933;PMS3003;30667;43.614;1.442;2023-06-26T07:48:16;11.00;10.80;6.20
44933;PMS3003;30667;43.614;1.442;2023-06-26T07:50:42;10.00;9.75;6.00
44933;PMS3003;30667;43.614;1.442;2023-06-26T07:53:07;11.00;10.75;6.00
44933;PMS3003;30667;43.614;1.442;2023-06-26T07:55:32;11.00;10.50;5.50
44933;PMS3003;30667;43.614;1.442;2023-06-26T07:57:58;10.75;10.00;5.00
44933;PMS3003;30667;43.614;1.442;2023-06-26T08:00:24;12.25;11.75;6.75
44933;PMS3003;30667;43.614;1.442;2023-06-26T08:02:49;12.25;12.00;7.00
44933;PMS3003;30667;43.614;1.442;2023-06-26T08:05:14;12.75;10.50;6.00
44933;PMS3003;30667;43.614;1.442;2023-06-26T08:07:40;13.25;12.00;7.75
44933;PMS3003;30667;43.614;1.442;2023-06-26T08:10:05;13.00;11.75;6.75
44933;PMS3003;30667;43.614;1.442;2023-06-26T08:12:31;13.00;12.25;7.25
44933;PMS3003;30667;43.614;1.442;2023-06-26T08:14:57;13.50;12.25;7.75
44933;PMS3003;30667;43.614;1.442;2023-06-26T08:17:22;12.00;11.50;7.00
44933;PMS3003;30667;43.614;1.442;2023-06-26T08:19:47;11.00;10.75;7.00
44933;PMS3003;30667;43.614;1.442;2023-06-26T08:22:13;11.50;11.50;7.00
44933;PMS3003;30667;43.614;1.442;2023-06-26T08:24:38;11.50;11.00;6.25
44933;PMS3003;30667;43.614;1.442;2023-06-26T08:27:04;11.00;11.00;7.00
44933;PMS3003;30667;43.614;1.442;2023-06-26T08:29:30;13.40;11.60;7.20
44933;PMS3003;30667;43.614;1.442;2023-06-26T08:31:56;9.25;9.25;5.75
44933;PMS3003;30667;43.614;1.442;2023-06-26T08:34:21;13.00;12.00;7.00
44933;PMS3003;30667;43.614;1.442;2023-06-26T08:36:47;12.50;11.50;7.00
44933;PMS3003;30667;43.614;1.442;2023-06-26T08:39:12;12.00;12.00;6.75
44933;PMS3003;30667;43.614;1.442;2023-06-26T08:41:37;11.00;10.50;6.75
44933;PMS3003;30667;43.614;1.442;2023-06-26T08:44:03;12.25;12.25;7.00
44933;PMS3003;30667;43.614;1.442;2023-06-26T08:46:29;11.80;10.60;6.20
44933;PMS3003;30667;43.614;1.442;2023-06-26T08:48:56;13.00;11.80;7.00
44933;PMS3003;30667;43.614;1.442;2023-06-26T08:51:27;13.20;12.60;7.40
44933;PMS3003;30667;43.614;1.442;2023-06-26T08:54:03;12.40;10.20;6.00
44933;PMS3003;30667;43.614;1.442;2023-06-26T08:56:37;11.40;11.20;6.80
44933;PMS3003;30667;43.614;1.442;2023-06-26T08:59:07;11.20;10.00;6.00
44933;PMS3003;30667;43.614;1.442;2023-06-26T09:01:35;10.60;10.60;6.00
44933;PMS3003;30667;43.614;1.442;2023-06-26T09:04:02;13.00;11.20;6.40
44933;PMS3003;30667;43.614;1.442;2023-06-26T09:06:27;13.00;12.40;7.00
44933;PMS3003;30667;43.614;1.442;2023-06-26T09:08:53;12.50;11.50;6.50
44933;PMS3003;30667;43.614;1.442;2023-06-26T09:11:18;13.00;11.75;7.00
44933;PMS3003;30667;43.614;1.442;2023-06-26T09:13:44;9.75;9.50;5.50
44933;PMS3003;30667;43.614;1.442;2023-06-26T09:16:12;11.20;10.20;6.40
44933;PMS3003;30667;43.614;1.442;2023-06-26T09:18:38;12.00;12.00;6.25
44933;PMS3003;30667;43.614;1.442;2023-06-26T09:21:09;12.40;9.80;6.40
44933;PMS3003;30667;43.614;1.442;2023-06-26T09:23:36;12.40;11.80;6.20
44933;PMS3003;30667;43.614;1.442;2023-06-26T09:26:05;12.00;11.00;6.00
44933;PMS3003;30667;43.614;1.442;2023-06-26T09:28:31;14.00;13.00;7.80
44933;PMS3003;30667;43.614;1.442;2023-06-26T09:31:04;12.60;11.80;6.20
44933;PMS3003;30667;43.614;1.442;2023-06-26T09:33:34;12.00;11.60;6.60
44933;PMS3003;30667;43.614;1.442;2023-06-26T09:36:07;11.80;11.20;6.60
44933;PMS3003;30667;43.614;1.442;2023-06-26T09:38:36;12.80;12.60;6.80
44933;PMS3003;30667;43.614;1.442;2023-06-26T09:41:02;11.25;10.75;7.00
44933;PMS3003;30667;43.614;1.442;2023-06-26T09:43:28;12.40;10.80;6.00
44933;PMS3003;30667;43.614;1.442;2023-06-26T09:45:53;13.00;12.00;7.00
44933;PMS3003;30667;43.614;1.442;2023-06-26T09:48:20;12.40;11.00;6.80
44933;PMS3003;30667;43.614;1.442;2023-06-26T09:50:53;12.00;11.00;6.25
44933;PMS3003;30667;43.614;1.442;2023-06-26T09:53:18;12.80;12.40;7.80
44933;PMS3003;30667;43.614;1.442;2023-06-26T09:55:45;11.80;10.00;6.00
44933;PMS3003;30667;43.614;1.442;2023-06-26T09:58:12;12.20;11.20;6.80
44933;PMS3003;30667;43.614;1.442;2023-06-26T10:00:40;12.00;11.20;6.80
44933;PMS3003;30667;43.614;1.442;2023-06-26T10:03:10;11.00;10.00;6.60
44933;PMS3003;30667;43.614;1.442;2023-06-26T10:05:39;13.00;11.40;7.00
44933;PMS3003;30667;43.614;1.442;2023-06-26T10:08:08;11.20;11.00;6.80
44933;PMS3003;30667;43.614;1.442;2023-06-26T10:10:35;11.40;10.40;5.80
44933;PMS3003;30667;43.614;1.442;2023-06-26T10:13:14;11.20;10.40;5.20
44933;PMS3003;30667;43.614;1.442;2023-06-26T10:15:44;12.80;11.80;7.20
44933;PMS3003;30667;43.614;1.442;2023-06-26T10:18:11;12.60;11.40;6.40
44933;PMS3003;30667;43.614;1.442;2023-06-26T10:20:48;12.00;10.80;6.00
44933;PMS3003;30667;43.614;1.442;2023-06-26T10:23:14;11.60;11.00;6.20
44933;PMS3003;30667;43.614;1.442;2023-06-26T10:26:18;9.60;9.20;6.00
44933;PMS3003;30667;43.614;1.442;2023-06-26T10:28:46;12.40;11.00;6.80
44933;PMS3003;30667;43.614;1.442;2023-06-26T10:31:18;11.00;10.60;6.20
44933;PMS3003;30667;43.614;1.442;2023-06-26T10:33:49;10.40;9.60;6.00
44933;PMS3003;30667;43.614;1.442;2023-06-26T10:36:26;15.40;12.80;7.00
44933;PMS3003;30667;43.614;1.442;2023-06-26T10:39:03;11.80;10.80;5.80
44933;PMS3003;30667;43.614;1.442;2023-06-26T10:41:39;11.40;10.00;6.60
44933;PMS3003;30667;43.614;1.442;2023-06-26T10:44:17;12.00;10.80;5.80
44933;PMS3003;30667;43.614;1.442;2023-06-26T10:46:53;9.80;9.40;5.80
44933;PMS3003;30667;43.614;1.442;2023-06-26T10:49:31;12.00;11.60;6.40
44933;PMS3003;30667;43.614;1.442;2023-06-26T10:52:00;13.40;12.80;7.40
44933;PMS3003;30667;43.614;1.442;2023-06-26T10:54:30;15.40;13.20;7.60
44933;PMS3003;30667;43.614;1.442;2023-06-26T10:56:58;13.60;12.40;7.20
44933;PMS3003;30667;43.614;1.442;2023-06-26T10:59:25;16.60;11.80;7.00
44933;PMS3003;30667;43.614;1.442;2023-06-26T11:02:01;13.20;12.00;7.00
44933;PMS3003;30667;43.614;1.442;2023-06-26T11:04:44;11.80;11.00;7.00
44933;PMS3003;30667;43.614;1.442;2023-06-26T11:09:55;11.60;11.00;6.80
44933;PMS3003;30667;43.614;1.442;2023-06-26T11:12:41;12.20;10.80;6.80
44933;PMS3003;30667;43.614;1.442;2023-06-26T11:15:16;12.60;12.20;8.00
44933;PMS3003;30667;43.614;1.442;2023-06-26T11:17:44;9.80;9.80;6.60
44933;PMS3003;30667;43.614;1.442;2023-06-26T11:20:10;11.80;10.80;6.20
44933;PMS3003;30667;43.614;1.442;2023-06-26T11:22:38;9.80;9.80;5.60
44933;PMS3003;30667;43.614;1.442;2023-06-26T11:25:05;10.60;10.60;5.40
44933;PMS3003;30667;43.614;1.442;2023-06-26T11:30:02;11.20;9.80;6.40
44933;PMS3003;30667;43.614;1.442;2023-06-26T11:32:28;11.80;11.60;6.80
44933;PMS3003;30667;43.614;1.442;2023-06-26T11:34:54;10.00;9.75;6.00
44933;PMS3003;30667;43.614;1.442;2023-06-26T11:37:20;9.00;9.00;5.00
44933;PMS3003;30667;43.614;1.442;2023-06-26T11:39:46;8.80;8.00;4.80
44933;PMS3003;30667;43.614;1.442;2023-06-26T11:42:11;9.00;8.75;5.00
44933;PMS3003;30667;43.614;1.442;2023-06-26T11:44:40;10.00;9.25;5.00
44933;PMS3003;30667;43.614;1.442;2023-06-26T11:47:08;10.80;9.80;6.60
44933;PMS3003;30667;43.614;1.442;2023-06-26T11:49:36;11.60;11.20;6.00
44933;PMS3003;30667;43.614;1.442;2023-06-26T11:52:02;11.00;10.50;6.00
44933;PMS3003;30667;43.614;1.442;2023-06-26T11:54:28;11.80;10.40;6.40
44933;PMS3003;30667;43.614;1.442;2023-06-26T11:56:55;10.80;10.20;6.60
44933;PMS3003;30667;43.614;1.442;2023-06-26T11:59:22;12.60;11.00;7.00
44933;PMS3003;30667;43.614;1.442;2023-06-26T12:01:48;11.25;10.00;6.50
44933;PMS3003;30667;43.614;1.442;2023-06-26T12:04:16;11.40;10.00;5.40
44933;PMS3003;30667;43.614;1.442;2023-06-26T12:06:48;10.60;9.20;5.80
44933;PMS3003;30667;43.614;1.442;2023-06-26T12:09:16;8.80;8.80;5.80
44933;PMS3003;30667;43.614;1.442;2023-06-26T12:11:44;11.60;9.60;5.80
44933;PMS3003;30667;43.614;1.442;2023-06-26T12:14:13;10.80;9.80;5.60
44933;PMS3003;30667;43.614;1.442;2023-06-26T12:16:39;10.20;10.20;6.20
44933;PMS3003;30667;43.614;1.442;2023-06-26T12:19:06;11.20;10.80;6.20
44933;PMS3003;30667;43.614;1.442;2023-06-26T12:24:01;12.00;12.00;7.20
44933;PMS3003;30667;43.614;1.442;2023-06-26T12:26:27;13.00;12.25;8.25
44933;PMS3003;30667;43.614;1.442;2023-06-26T12:28:54;12.60;11.60;7.60
44933;PMS3003;30667;43.614;1.442;2023-06-26T12:31:27;12.80;12.80;7.00
44933;PMS3003;30667;43.614;1.442;2023-06-26T12:33:52;11.00;10.75;6.75
44933;PMS3003;30667;43.614;1.442;2023-06-26T12:36:18;12.25;12.00;7.00
44933;PMS3003;30667;43.614;1.442;2023-06-26T12:38:45;14.25;13.25;7.25
44933;PMS3003;30667;43.614;1.442;2023-06-26T12:41:12;12.60;11.80;6.60
44933;PMS3003;30667;43.614;1.442;2023-06-26T12:43:39;12.80;12.00;7.20
44933;PMS3003;30667;43.614;1.442;2023-06-26T12:46:05;14.60;13.80;8.60
44933;PMS3003;30667;43.614;1.442;2023-06-26T12:48:41;13.75;12.50;6.25
44933;PMS3003;30667;43.614;1.442;2023-06-26T12:51:17;14.00;13.60;7.80
44933;PMS3003;30667;43.614;1.442;2023-06-26T12:53:43;11.60;11.60;7.20
44933;PMS3003;30667;43.614;1.442;2023-06-26T12:56:09;12.80;12.40;7.40
44933;PMS3003;30667;43.614;1.442;2023-06-26T12:58:35;14.60;13.60;7.60
44933;PMS3003;30667;43.614;1.442;2023-06-26T13:01:05;13.60;12.60;7.20
44933;PMS3003;30667;43.614;1.442;2023-06-26T13:03:45;13.00;12.20;6.60
44933;PMS3003;30667;43.614;1.442;2023-06-26T13:06:10;15.50;13.50;8.00
44933;PMS3003;30667;43.614;1.442;2023-06-26T13:08:37;14.80;12.20;6.80
44933;PMS3003;30667;43.614;1.442;2023-06-26T13:11:02;12.25;10.75;6.00
44933;PMS3003;30667;43.614;1.442;2023-06-26T13:13:28;12.25;11.25;7.00
44933;PMS3003;30667;43.614;1.442;2023-06-26T13:15:53;11.50;10.75;5.50
44933;PMS3003;30667;43.614;1.442;2023-06-26T13:18:19;13.25;12.00;6.50
44933;PMS3003;30667;43.614;1.442;2023-06-26T13:20:45;11.00;11.00;7.00
44933;PMS3003;30667;43.614;1.442;2023-06-26T13:23:11;13.00;12.00;7.00
44933;PMS3003;30667;43.614;1.442;2023-06-26T13:25:36;11.00;11.00;7.00
44933;PMS3003;30667;43.614;1.442;2023-06-26T13:28:02;10.50;10.00;6.75
44933;PMS3003;30667;43.614;1.442;2023-06-26T13:30:27;11.75;11.00;6.25
44933;PMS3003;30667;43.614;1.442;2023-06-26T13:32:53;13.00;13.00;8.75
44933;PMS3003;30667;43.614;1.442;2023-06-26T13:35:18;10.50;10.25;5.75
44933;PMS3003;30667;43.614;1.442;2023-06-26T13:37:43;12.75;11.25;6.75
44933;PMS3003;30667;43.614;1.442;2023-06-26T13:40:09;10.50;10.25;5.00
44933;PMS3003;30667;43.614;1.442;2023-06-26T13:42:35;10.40;10.40;6.00
44933;PMS3003;30667;43.614;1.442;2023-06-26T13:45:01;13.00;11.40;5.60
44933;PMS3003;30667;43.614;1.442;2023-06-26T13:47:30;13.00;11.60;6.80
44933;PMS3003;30667;43.614;1.442;2023-06-26T13:49:55;11.00;11.00;6.25
44933;PMS3003;30667;43.614;1.442;2023-06-26T13:52:21;11.00;10.50;6.75
44933;PMS3003;30667;43.614;1.442;2023-06-26T13:54:46;11.00;9.75;5.00
44933;PMS3003;30667;43.614;1.442;2023-06-26T13:57:11;12.00;12.00;7.00
44933;PMS3003;30667;43.614;1.442;2023-06-26T13:59:38;11.50;10.00;6.25
44933;PMS3003;30667;43.614;1.442;2023-06-26T14:02:07;10.20;10.00;5.60
44933;PMS3003;30667;43.614;1.442;2023-06-26T14:04:33;10.60;10.00;5.40
44933;PMS3003;30667;43.614;1.442;2023-06-26T14:06:58;13.25;12.00;6.00
44933;PMS3003;30667;43.614;1.442;2023-06-26T14:09:24;11.50;11.00;5.25